^^
Saratoga-Weather Station Historical Data
Daily Summary for November 14, 2020 Units:  Metric    English   Both
Daily Weekly Monthly Yearly Custom
  High: Low: Average:
Temperature: 15.3 °C 7.2 °C 10.2 °C
Dew Point: 11.9 °C 6.6 °C 9 °C
Humidity: 98% 79% 93%
Wind Speed: 7.9km/h 0km/h 0.8km/h
Wind Gust: 16.1km/h - -
Wind- - ESE
Pressure: 1019.3 hPa 1014.9 hPa -
Precipitation: 0.0 mm    
Historical Graphs
 
 
Tabular Data for November 14, 2020
Time Temperature Dew Point Pressure Wind Wind Speed Wind Gust Humidity Rainfall Rate (Hourly) solar
00:03 10.6 °C 9.7 °C 1019.0 hPa Calm   4.8 km/h 94% 0.0 mm 0 W/m2
00:08 10.5 °C 9.6 °C 1019.0 hPa Calm   1.6 km/h 94% 0.0 mm 0 W/m2
00:13 10.4 °C 9.3 °C 1019.0 hPa Calm   3.2 km/h 93% 0.0 mm 0 W/m2
00:18 10.2 °C 9.1 °C 1019.0 hPa Calm     93% 0.0 mm 0 W/m2
00:23 10.2 °C 9.3 °C 1019.0 hPa Calm     94% 0.0 mm 0 W/m2
00:28 10.1 °C 9.2 °C 1019.3 hPa WSW 1.4 km/h 1.6 km/h 94% 0.0 mm 0 W/m2
00:33 10.1 °C 9.2 °C 1019.3 hPa Calm   1.6 km/h 94% 0.0 mm 0 W/m2
00:38 10.1 °C 9.2 °C 1019.3 hPa Calm     94% 0.0 mm 0 W/m2
00:43 10.1 °C 9.2 °C 1019.3 hPa Calm     94% 0.0 mm 0 W/m2
00:48 10.1 °C 9.2 °C 1019.3 hPa Calm     94% 0.0 mm 0 W/m2
00:53 10.1 °C 9.3 °C 1019.3 hPa Calm   1.6 km/h 95% 0.0 mm 0 W/m2
00:58 10.1 °C 9.2 °C 1019.3 hPa Calm     94% 0.0 mm 0 W/m2
01:03 10.1 °C 9.3 °C 1019.3 hPa SW 3.2 km/h 3.2 km/h 95% 0.0 mm 0 W/m2
01:08 10.1 °C 9.3 °C 1019.3 hPa Calm   1.6 km/h 95% 0.0 mm 0 W/m2
01:13 10.2 °C 9.4 °C 1019.3 hPa ESE 1.4 km/h 3.2 km/h 95% 0.0 mm 0 W/m2
01:18 10.2 °C 9.4 °C 1019.3 hPa SE 4.7 km/h 4.8 km/h 95% 0.0 mm 0 W/m2
01:23 10.3 °C 9.5 °C 1019.0 hPa Calm   4.8 km/h 95% 0.0 mm 0 W/m2
01:28 10.3 °C 9.4 °C 1019.0 hPa Calm   3.2 km/h 94% 0.0 mm 0 W/m2
01:33 10.2 °C 9.3 °C 1019.0 hPa SE 1.4 km/h 3.2 km/h 94% 0.0 mm 0 W/m2
01:38 10.2 °C 9.3 °C 1019.0 hPa Calm   1.6 km/h 94% 0.0 mm 0 W/m2
01:43 10.1 °C 9.2 °C 1019.3 hPa Calm     94% 0.0 mm 0 W/m2
01:48 9.9 °C 9 °C 1019.0 hPa Calm     94% 0.0 mm 0 W/m2
01:53 9.8 °C 8.7 °C 1019.3 hPa Calm     93% 0.0 mm 0 W/m2
01:58 9.6 °C 8.5 °C 1019.0 hPa Calm     93% 0.0 mm 0 W/m2
02:03 9.4 °C 8.5 °C 1019.3 hPa Calm     94% 0.0 mm 0 W/m2
02:08 9.3 °C 8.4 °C 1019.0 hPa Calm     94% 0.0 mm 0 W/m2
02:13 9.3 °C 8.4 °C 1019.0 hPa Calm     94% 0.0 mm 0 W/m2
02:18 9.2 °C 8.3 °C 1019.0 hPa Calm     94% 0.0 mm 0 W/m2
02:23 9.2 °C 8.4 °C 1019.0 hPa Calm     95% 0.0 mm 0 W/m2
02:28 9.2 °C 8.4 °C 1019.0 hPa Calm     95% 0.0 mm 0 W/m2
02:33 9.1 °C 8.3 °C 1019.0 hPa Calm     95% 0.0 mm 0 W/m2
02:38 9.1 °C 8.3 °C 1019.0 hPa Calm     95% 0.0 mm 0 W/m2
02:43 9 °C 8.2 °C 1019.3 hPa Calm     95% 0.0 mm 0 W/m2
02:48 9 °C 8.2 °C 1019.0 hPa Calm     95% 0.0 mm 0 W/m2
02:53 9 °C 8.2 °C 1019.0 hPa Calm     95% 0.0 mm 0 W/m2
02:58 9 °C 8.2 °C 1019.0 hPa Calm     95% 0.0 mm 0 W/m2
03:03 9.1 °C 8.3 °C 1019.0 hPa Calm     95% 0.0 mm 0 W/m2
03:08 9.1 °C 8.5 °C 1019.0 hPa Calm     96% 0.0 mm 0 W/m2
03:13 9.1 °C 8.3 °C 1019.0 hPa Calm     95% 0.0 mm 0 W/m2
03:18 9 °C 8.2 °C 1019.0 hPa Calm     95% 0.0 mm 0 W/m2
03:23 9 °C 8.4 °C 1019.0 hPa Calm     96% 0.0 mm 0 W/m2
03:28 8.9 °C 8.3 °C 1019.0 hPa Calm     96% 0.0 mm 0 W/m2
03:33 8.9 °C 8.3 °C 1019.0 hPa Calm     96% 0.0 mm 0 W/m2
03:38 8.9 °C 8.3 °C 1019.0 hPa Calm   1.6 km/h 96% 0.0 mm 0 W/m2
03:43 8.9 °C 8.3 °C 1018.6 hPa Calm     96% 0.0 mm 0 W/m2
03:48 8.8 °C 8.2 °C 1018.6 hPa Calm   1.6 km/h 96% 0.0 mm 0 W/m2
03:53 8.7 °C 8.1 °C 1018.6 hPa Calm     96% 0.0 mm 0 W/m2
03:58 8.8 °C 8.2 °C 1018.6 hPa Calm     96% 0.0 mm 0 W/m2
04:03 8.8 °C 8.2 °C 1018.6 hPa Calm     96% 0.0 mm 0 W/m2
04:08 8.9 °C 8.3 °C 1018.6 hPa Calm     96% 0.0 mm 0 W/m2
04:13 8.9 °C 8.3 °C 1018.6 hPa Calm     96% 0.0 mm 0 W/m2
04:19 8.8 °C 8.2 °C 1018.6 hPa Calm     96% 0.0 mm 0 W/m2
04:24 8.7 °C 8.1 °C 1018.6 hPa Calm     96% 0.0 mm 0 W/m2
04:29 8.7 °C 8.1 °C 1018.6 hPa Calm     96% 0.0 mm 0 W/m2
04:34 8.7 °C 8.1 °C 1018.6 hPa Calm     96% 0.0 mm 0 W/m2
04:39 8.7 °C 8.1 °C 1018.6 hPa Calm     96% 0.0 mm 0 W/m2
04:44 8.7 °C 8.1 °C 1018.6 hPa Calm     96% 0.0 mm 0 W/m2
04:49 8.7 °C 8.1 °C 1018.6 hPa Calm     96% 0.0 mm 0 W/m2
04:54 8.7 °C 8.1 °C 1018.6 hPa Calm     96% 0.0 mm 0 W/m2
04:59 8.6 °C 8 °C 1018.6 hPa Calm     96% 0.0 mm 0 W/m2
05:04 8.5 °C 7.9 °C 1018.6 hPa Calm     96% 0.0 mm 0 W/m2
05:09 8.4 °C 7.8 °C 1018.6 hPa Calm     96% 0.0 mm 0 W/m2
05:14 8.4 °C 7.8 °C 1018.6 hPa Calm     96% 0.0 mm 0 W/m2
05:19 8.3 °C 7.7 °C 1018.6 hPa Calm     96% 0.0 mm 0 W/m2
05:24 8.3 °C 7.7 °C 1018.6 hPa Calm     96% 0.0 mm 0 W/m2
05:29 8.3 °C 7.7 °C 1018.6 hPa Calm     96% 0.0 mm 0 W/m2
05:34 8.2 °C 7.6 °C 1018.6 hPa Calm     96% 0.0 mm 0 W/m2
05:39 8.2 °C 7.6 °C 1018.6 hPa Calm     96% 0.0 mm 0 W/m2
05:44 8.1 °C 7.5 °C 1018.3 hPa Calm     96% 0.0 mm 0 W/m2
05:49 8 °C 7.4 °C 1018.3 hPa Calm     96% 0.0 mm 0 W/m2
05:54 7.9 °C 7.3 °C 1018.3 hPa Calm     96% 0.0 mm 0 W/m2
05:59 7.8 °C 7.2 °C 1018.3 hPa Calm     96% 0.0 mm 0 W/m2
06:04 7.7 °C 7.1 °C 1018.3 hPa Calm     96% 0.0 mm 0 W/m2
06:09 7.7 °C 7.1 °C 1018.3 hPa Calm     96% 0.0 mm 0 W/m2
06:14 7.7 °C 7.1 °C 1018.3 hPa Calm     96% 0.0 mm 0 W/m2
06:19 7.7 °C 7.1 °C 1018.3 hPa Calm     96% 0.0 mm 0 W/m2
06:24 7.6 °C 7 °C 1018.3 hPa Calm     96% 0.0 mm 0 W/m2
06:29 7.5 °C 6.9 °C 1018.3 hPa Calm     96% 0.0 mm 0 W/m2
06:34 7.4 °C 6.8 °C 1018.3 hPa Calm     96% 0.0 mm 0 W/m2
06:39 7.3 °C 6.7 °C 1018.3 hPa Calm     96% 0.0 mm 0 W/m2
06:44 7.3 °C 6.7 °C 1018.3 hPa Calm     96% 0.0 mm 0 W/m2
06:49 7.2 °C 6.6 °C 1018.3 hPa Calm     96% 0.0 mm 0 W/m2
06:54 7.2 °C 6.6 °C 1018.3 hPa Calm     96% 0.0 mm 0 W/m2
06:59 7.3 °C 6.7 °C 1018.3 hPa Calm     96% 0.0 mm 0 W/m2
07:04 7.3 °C 6.7 °C 1018.3 hPa Calm     96% 0.0 mm 0 W/m2
07:09 7.4 °C 7 °C 1018.3 hPa Calm     97% 0.0 mm 0 W/m2
07:14 7.4 °C 7 °C 1018.3 hPa Calm     97% 0.0 mm 0 W/m2
07:19 7.4 °C 7 °C 1018.3 hPa Calm     97% 0.0 mm 0 W/m2
07:24 7.3 °C 6.9 °C 1018.3 hPa Calm     97% 0.0 mm 0 W/m2
07:29 7.3 °C 6.9 °C 1018.3 hPa Calm     97% 0.0 mm 0 W/m2
07:34 7.3 °C 6.7 °C 1018.6 hPa Calm     96% 0.0 mm 0 W/m2
07:39 7.2 °C 6.6 °C 1018.3 hPa Calm     96% 0.0 mm 0 W/m2
07:44 7.2 °C 6.6 °C 1018.3 hPa Calm     96% 0.0 mm 0 W/m2
07:49 7.2 °C 6.8 °C 1018.6 hPa Calm     97% 0.0 mm 5 W/m2
07:54 7.2 °C 6.8 °C 1018.6 hPa Calm     97% 0.0 mm 7 W/m2
07:59 7.2 °C 6.8 °C 1018.6 hPa Calm     97% 0.0 mm 11 W/m2
08:04 7.3 °C 6.9 °C 1018.6 hPa Calm     97% 0.0 mm 12 W/m2
08:09 7.3 °C 6.9 °C 1018.6 hPa Calm     97% 0.0 mm 11 W/m2
08:14 7.4 °C 7 °C 1019.0 hPa Calm     97% 0.0 mm 14 W/m2
08:19 7.5 °C 7.1 °C 1018.6 hPa Calm     97% 0.0 mm 19 W/m2
08:24 7.5 °C 7.1 °C 1019.0 hPa Calm     97% 0.0 mm 26 W/m2
08:29 7.6 °C 7.2 °C 1019.0 hPa Calm     97% 0.0 mm 32 W/m2
08:34 7.7 °C 7.3 °C 1019.0 hPa Calm     97% 0.0 mm 35 W/m2
08:39 7.8 °C 7.4 °C 1019.0 hPa Calm     97% 0.0 mm 39 W/m2
08:44 8 °C 7.6 °C 1019.0 hPa Calm     97% 0.0 mm 42 W/m2
08:49 8.1 °C 7.7 °C 1019.0 hPa Calm     97% 0.0 mm 42 W/m2
08:54 8.2 °C 7.8 °C 1019.0 hPa Calm     97% 0.0 mm 37 W/m2
08:59 8.3 °C 7.9 °C 1019.0 hPa Calm   3.2 km/h 97% 0.0 mm 32 W/m2
09:04 8.5 °C 8.1 °C 1019.0 hPa East 3.2 km/h 4.8 km/h 97% 0.0 mm 30 W/m2
09:09 8.7 °C 8.3 °C 1019.0 hPa ESE 3.2 km/h 4.8 km/h 97% 0.0 mm 33 W/m2
09:14 8.9 °C 8.4 °C 1019.0 hPa ESE 3.2 km/h 4.8 km/h 97% 0.0 mm 35 W/m2
09:19 9.1 °C 8.6 °C 1019.0 hPa ESE 3.2 km/h 4.8 km/h 97% 0.0 mm 39 W/m2
09:24 9.2 °C 8.9 °C 1019.0 hPa East 4.7 km/h 4.8 km/h 98% 0.0 mm 40 W/m2
09:29 9.3 °C 8.8 °C 1019.0 hPa ESE 3.2 km/h 3.2 km/h 97% 0.0 mm 44 W/m2
09:34 9.4 °C 8.9 °C 1019.0 hPa ESE 1.4 km/h 4.8 km/h 97% 0.0 mm 49 W/m2
09:39 9.5 °C 9.2 °C 1019.0 hPa ESE 3.2 km/h 4.8 km/h 98% 0.0 mm 60 W/m2
09:44 9.6 °C 9.1 °C 1019.0 hPa Calm   1.6 km/h 97% 0.0 mm 76 W/m2
09:49 9.7 °C 9.2 °C 1018.6 hPa ESE 3.2 km/h 3.2 km/h 97% 0.0 mm 84 W/m2
09:54 9.8 °C 9.3 °C 1018.6 hPa Calm   3.2 km/h 97% 0.0 mm 90 W/m2
09:59 10 °C 9.7 °C 1018.6 hPa ESE 1.4 km/h 4.8 km/h 98% 0.0 mm 90 W/m2
10:04 10.2 °C 9.7 °C 1018.6 hPa ESE 3.2 km/h 4.8 km/h 97% 0.0 mm 88 W/m2
10:09 10.3 °C 9.8 °C 1018.6 hPa East 1.4 km/h 4.8 km/h 97% 0.0 mm 84 W/m2
10:14 10.5 °C 10 °C 1018.6 hPa East 3.2 km/h 6.4 km/h 97% 0.0 mm 83 W/m2
10:19 10.7 °C 10.4 °C 1018.6 hPa East 1.4 km/h 6.4 km/h 98% 0.0 mm 72 W/m2
10:24 10.8 °C 10.3 °C 1018.6 hPa East 3.2 km/h 6.4 km/h 97% 0.0 mm 65 W/m2
10:29 11.1 °C 10.6 °C 1018.6 hPa East 1.4 km/h 3.2 km/h 97% 0.0 mm 62 W/m2
10:34 11.3 °C 10.8 °C 1018.6 hPa ENE 1.4 km/h 4.8 km/h 97% 0.0 mm 58 W/m2
10:39 11.4 °C 10.8 °C 1018.6 hPa ESE 3.2 km/h 4.8 km/h 96% 0.0 mm 56 W/m2
10:44 11.6 °C 11 °C 1018.6 hPa ESE 6.4 km/h 9.7 km/h 96% 0.0 mm 44 W/m2
10:49 11.7 °C 10.9 °C 1018.6 hPa ESE 3.2 km/h 3.2 km/h 95% 0.0 mm 60 W/m2
10:54 11.8 °C 10.9 °C 1018.6 hPa ESE 3.2 km/h 4.8 km/h 94% 0.0 mm 62 W/m2
10:59 12 °C 10.9 °C 1018.6 hPa East 3.2 km/h 4.8 km/h 93% 0.0 mm 62 W/m2
11:04 12.2 °C 10.9 °C 1018.6 hPa SE 1.4 km/h 6.4 km/h 92% 0.0 mm 58 W/m2
11:09 12.3 °C 11 °C 1018.6 hPa ESE 1.4 km/h 6.4 km/h 92% 0.0 mm 63 W/m2
11:14 12.4 °C 11 °C 1018.6 hPa ENE 1.4 km/h 4.8 km/h 91% 0.0 mm 67 W/m2
11:19 12.6 °C 11 °C 1018.6 hPa ESE 1.4 km/h 3.2 km/h 90% 0.0 mm 77 W/m2
11:24 12.8 °C 11.2 °C 1018.6 hPa East 4.7 km/h 6.4 km/h 90% 0.0 mm 91 W/m2
11:29 13.1 °C 11.2 °C 1018.3 hPa Calm   3.2 km/h 88% 0.0 mm 100 W/m2
11:34 13.3 °C 11.2 °C 1018.3 hPa Calm   1.6 km/h 87% 0.0 mm 88 W/m2
11:39 13.4 °C 11.1 °C 1018.3 hPa ENE 7.9 km/h 9.7 km/h 86% 0.0 mm 84 W/m2
11:44 13.7 °C 11.4 °C 1018.3 hPa ENE 1.4 km/h 1.6 km/h 86% 0.0 mm 95 W/m2
11:49 13.9 °C 11.6 °C 1018.3 hPa ESE 1.4 km/h 9.7 km/h 86% 0.0 mm 125 W/m2
11:54 14 °C 11.5 °C 1018.0 hPa ENE 3.2 km/h 6.4 km/h 85% 0.0 mm 146 W/m2
11:59 14.2 °C 11.4 °C 1018.0 hPa Calm   9.7 km/h 83% 0.0 mm 125 W/m2
12:04 14.2 °C 11.4 °C 1018.0 hPa East 4.7 km/h 11.3 km/h 83% 0.0 mm 72 W/m2
12:09 14.3 °C 11.5 °C 1018.0 hPa ESE 1.4 km/h 8 km/h 83% 0.0 mm 76 W/m2
12:14 14.3 °C 11.5 °C 1017.6 hPa NE 1.4 km/h 11.3 km/h 83% 0.0 mm 77 W/m2
12:19 14.4 °C 11.5 °C 1017.6 hPa ENE 1.4 km/h 3.2 km/h 83% 0.0 mm 81 W/m2
12:24 14.5 °C 11.5 °C 1017.6 hPa East 3.2 km/h 9.7 km/h 82% 0.0 mm 65 W/m2
12:29 14.6 °C 11.6 °C 1017.6 hPa East 1.4 km/h 3.2 km/h 82% 0.0 mm 67 W/m2
12:34 14.7 °C 11.7 °C 1017.6 hPa ESE 3.2 km/h 6.4 km/h 82% 0.0 mm 65 W/m2
12:39 14.8 °C 11.8 °C 1017.6 hPa Calm   1.6 km/h 82% 0.0 mm 74 W/m2
12:44 14.8 °C 11.6 °C 1017.3 hPa ESE 3.2 km/h 4.8 km/h 81% 0.0 mm 84 W/m2
12:49 14.8 °C 11.6 °C 1017.3 hPa NNE 3.2 km/h 6.4 km/h 81% 0.0 mm 76 W/m2
12:54 14.9 °C 11.7 °C 1017.3 hPa East 4.7 km/h 9.7 km/h 81% 0.0 mm 65 W/m2
12:59 14.9 °C 11.7 °C 1016.9 hPa SE 3.2 km/h 6.4 km/h 81% 0.0 mm 67 W/m2
13:04 15 °C 11.8 °C 1016.9 hPa East 1.4 km/h 9.7 km/h 81% 0.0 mm 69 W/m2
13:09 15 °C 11.8 °C 1016.9 hPa Calm   3.2 km/h 81% 0.0 mm 104 W/m2
13:14 15 °C 11.8 °C 1016.9 hPa East 4.7 km/h 6.4 km/h 81% 0.0 mm 86 W/m2
13:19 15.1 °C 11.9 °C 1016.9 hPa East 3.2 km/h 9.7 km/h 81% 0.0 mm 67 W/m2
13:24 15.2 °C 11.8 °C 1016.9 hPa ESE 3.2 km/h 8 km/h 80% 0.0 mm 84 W/m2
13:30 15.3 °C 11.7 °C 1016.9 hPa East 6.4 km/h 11.3 km/h 79% 0.0 mm 65 W/m2
13:35 15.2 °C 11.6 °C 1016.9 hPa ENE 7.9 km/h 16.1 km/h 79% 0.0 mm 77 W/m2
13:40 15.2 °C 11.6 °C 1016.6 hPa SSE 4.7 km/h 11.3 km/h 79% 0.0 mm 58 W/m2
13:45 15.2 °C 11.6 °C 1016.6 hPa ESE 1.4 km/h 16.1 km/h 79% 0.0 mm 56 W/m2
13:50 15.2 °C 11.6 °C 1016.6 hPa ESE 3.2 km/h 9.7 km/h 79% 0.0 mm 60 W/m2
13:55 15.1 °C 11.5 °C 1016.6 hPa East 1.4 km/h 6.4 km/h 79% 0.0 mm 54 W/m2
14:00 15.1 °C 11.5 °C 1016.6 hPa East 1.4 km/h 11.3 km/h 79% 0.0 mm 53 W/m2
14:05 15.1 °C 11.5 °C 1016.6 hPa East 4.7 km/h 8 km/h 79% 0.0 mm 49 W/m2
14:10 15.1 °C 11.5 °C 1016.6 hPa ESE 1.4 km/h 9.7 km/h 79% 0.0 mm 47 W/m2
14:15 15.1 °C 11.5 °C 1016.3 hPa NE 4.7 km/h 8 km/h 79% 0.0 mm 47 W/m2
14:20 15.1 °C 11.5 °C 1016.3 hPa East 4.7 km/h 6.4 km/h 79% 0.0 mm 46 W/m2
14:25 15.1 °C 11.5 °C 1016.3 hPa ENE 3.2 km/h 8 km/h 79% 0.0 mm 47 W/m2
14:30 15.1 °C 11.5 °C 1016.3 hPa East 1.4 km/h 6.4 km/h 79% 0.0 mm 42 W/m2
14:35 15.1 °C 11.5 °C 1016.3 hPa SE 6.4 km/h 11.3 km/h 79% 0.0 mm 40 W/m2
14:40 15 °C 11.4 °C 1016.3 hPa East 1.4 km/h 3.2 km/h 79% 0.0 mm 40 W/m2
14:45 14.9 °C 11.3 °C 1016.3 hPa ENE 3.2 km/h 6.4 km/h 79% 0.0 mm 40 W/m2
14:50 14.9 °C 11.3 °C 1016.3 hPa ENE 3.2 km/h 6.4 km/h 79% 0.0 mm 40 W/m2
14:55 14.9 °C 11.5 °C 1016.3 hPa ESE 3.2 km/h 6.4 km/h 80% 0.0 mm 40 W/m2
15:00 14.8 °C 11.4 °C 1016.3 hPa ESE 3.2 km/h 8 km/h 80% 0.0 mm 40 W/m2
15:05 14.7 °C 11.3 °C 1015.9 hPa SE 3.2 km/h 11.3 km/h 80% 0.0 mm 37 W/m2
15:10 14.7 °C 11.5 °C 1015.9 hPa ENE 4.7 km/h 8 km/h 81% 0.0 mm 39 W/m2
15:15 14.7 °C 11.5 °C 1015.9 hPa East 1.4 km/h 4.8 km/h 81% 0.0 mm 35 W/m2
15:20 14.6 °C 11.4 °C 1015.9 hPa South 1.4 km/h 11.3 km/h 81% 0.0 mm 35 W/m2
15:25 14.4 °C 11.4 °C 1015.9 hPa ENE 1.4 km/h 3.2 km/h 82% 0.0 mm 32 W/m2
15:30 14.3 °C 11.3 °C 1015.9 hPa Calm   3.2 km/h 82% 0.0 mm 32 W/m2
15:35 14.1 °C 11.3 °C 1015.9 hPa SE 3.2 km/h 4.8 km/h 83% 0.0 mm 30 W/m2
15:40 13.9 °C 11.2 °C 1015.9 hPa Calm   1.6 km/h 84% 0.0 mm 28 W/m2
15:45 13.8 °C 11.1 °C 1015.9 hPa ESE 1.4 km/h 4.8 km/h 84% 0.0 mm 26 W/m2
15:50 13.8 °C 11.1 °C 1015.9 hPa Calm   1.6 km/h 84% 0.0 mm 26 W/m2
15:55 13.6 °C 10.9 °C 1015.9 hPa Calm   6.4 km/h 84% 0.0 mm 23 W/m2
16:00 13.5 °C 11 °C 1015.9 hPa Calm   1.6 km/h 85% 0.0 mm 21 W/m2
16:05 13.4 °C 10.9 °C 1015.9 hPa Calm     85% 0.0 mm 21 W/m2
16:10 13.2 °C 10.9 °C 1015.9 hPa East 3.2 km/h 6.4 km/h 86% 0.0 mm 19 W/m2
16:15 13.3 °C 11 °C 1015.9 hPa Calm   4.8 km/h 86% 0.0 mm 19 W/m2
16:20 13.1 °C 10.8 °C 1015.6 hPa Calm     86% 0.0 mm 18 W/m2
16:25 12.9 °C 10.6 °C 1015.6 hPa ENE 1.4 km/h 1.6 km/h 86% 0.0 mm 14 W/m2
16:30 12.7 °C 10.6 °C 1015.9 hPa Calm     87% 0.0 mm 14 W/m2
16:35 12.5 °C 10.4 °C 1015.6 hPa Calm     87% 0.0 mm 12 W/m2
16:40 12.3 °C 10.4 °C 1015.6 hPa Calm     88% 0.0 mm 11 W/m2
16:45 12.1 °C 10.2 °C 1015.6 hPa Calm   1.6 km/h 88% 0.0 mm 7 W/m2
16:50 11.9 °C 10.1 °C 1015.6 hPa Calm     89% 0.0 mm 5 W/m2
16:55 11.8 °C 10 °C 1015.6 hPa Calm   1.6 km/h 89% 0.0 mm 0 W/m2
17:00 11.6 °C 10 °C 1015.6 hPa Calm     90% 0.0 mm 0 W/m2
17:05 11.4 °C 9.8 °C 1015.6 hPa Calm     90% 0.0 mm 0 W/m2
17:10 11.2 °C 9.6 °C 1015.6 hPa Calm     90% 0.0 mm 0 W/m2
17:15 11.1 °C 9.7 °C 1015.6 hPa Calm     91% 0.0 mm 0 W/m2
17:20 10.9 °C 9.5 °C 1015.6 hPa Calm     91% 0.0 mm 0 W/m2
17:25 10.8 °C 9.6 °C 1015.6 hPa Calm     92% 0.0 mm 0 W/m2
17:30 10.7 °C 9.5 °C 1015.6 hPa Calm     92% 0.0 mm 0 W/m2
17:35 10.6 °C 9.4 °C 1015.6 hPa Calm     92% 0.0 mm 0 W/m2
17:40 10.4 °C 9.2 °C 1015.2 hPa Calm     92% 0.0 mm 0 W/m2
17:45 10.3 °C 9.1 °C 1015.2 hPa Calm     92% 0.0 mm 0 W/m2
17:50 10.2 °C 9.1 °C 1015.2 hPa Calm     93% 0.0 mm 0 W/m2
17:55 10.1 °C 9 °C 1015.2 hPa Calm     93% 0.0 mm 0 W/m2
18:00 10 °C 8.9 °C 1015.2 hPa Calm     93% 0.0 mm 0 W/m2
18:05 9.9 °C 8.8 °C 1015.2 hPa Calm     93% 0.0 mm 0 W/m2
18:10 9.8 °C 8.7 °C 1015.2 hPa Calm     93% 0.0 mm 0 W/m2
18:15 9.7 °C 8.6 °C 1015.2 hPa Calm     93% 0.0 mm 0 W/m2
18:20 9.6 °C 8.7 °C 1015.2 hPa Calm     94% 0.0 mm 0 W/m2
18:25 9.5 °C 8.6 °C 1015.2 hPa Calm     94% 0.0 mm 0 W/m2
18:30 9.4 °C 8.5 °C 1015.2 hPa Calm     94% 0.0 mm 0 W/m2
18:35 9.3 °C 8.4 °C 1015.2 hPa Calm     94% 0.0 mm 0 W/m2
18:40 9.3 °C 8.4 °C 1015.2 hPa Calm     94% 0.0 mm 0 W/m2
18:45 9.3 °C 8.4 °C 1015.2 hPa Calm     94% 0.0 mm 0 W/m2
18:50 9.2 °C 8.4 °C 1015.6 hPa Calm     95% 0.0 mm 0 W/m2
18:55 9.2 °C 8.4 °C 1015.6 hPa Calm     95% 0.0 mm 0 W/m2
19:00 9.2 °C 8.4 °C 1015.2 hPa Calm     95% 0.0 mm 0 W/m2
19:05 9.1 °C 8.3 °C 1015.2 hPa Calm     95% 0.0 mm 0 W/m2
19:10 9.1 °C 8.3 °C 1015.2 hPa Calm     95% 0.0 mm 0 W/m2
19:16 9 °C 8.2 °C 1015.2 hPa Calm     95% 0.0 mm 0 W/m2
19:21 8.9 °C 8.1 °C 1015.2 hPa Calm     95% 0.0 mm 0 W/m2
19:26 8.9 °C 8.1 °C 1015.2 hPa Calm     95% 0.0 mm 0 W/m2
19:31 8.9 °C 8.1 °C 1015.2 hPa Calm     95% 0.0 mm 0 W/m2
19:36 8.8 °C 8 °C 1015.2 hPa Calm     95% 0.0 mm 0 W/m2
19:41 8.8 °C 8 °C 1015.2 hPa Calm     95% 0.0 mm 0 W/m2
19:46 8.8 °C 8.2 °C 1015.2 hPa Calm     96% 0.0 mm 0 W/m2
19:51 8.8 °C 8.2 °C 1015.2 hPa Calm     96% 0.0 mm 0 W/m2
19:56 8.7 °C 8.1 °C 1015.2 hPa Calm     96% 0.0 mm 0 W/m2
20:01 8.7 °C 7.9 °C 1015.2 hPa Calm     95% 0.0 mm 0 W/m2
20:06 8.7 °C 7.9 °C 1015.2 hPa Calm     95% 0.0 mm 0 W/m2
20:11 8.6 °C 8 °C 1015.2 hPa Calm     96% 0.0 mm 0 W/m2
20:16 8.5 °C 7.9 °C 1015.2 hPa Calm     96% 0.0 mm 0 W/m2
20:21 8.4 °C 7.8 °C 1015.2 hPa Calm     96% 0.0 mm 0 W/m2
20:26 8.4 °C 7.8 °C 1015.2 hPa Calm     96% 0.0 mm 0 W/m2
20:31 8.3 °C 7.7 °C 1015.2 hPa Calm     96% 0.0 mm 0 W/m2
20:36 8.3 °C 7.7 °C 1015.2 hPa Calm     96% 0.0 mm 0 W/m2
20:41 8.3 °C 7.7 °C 1015.2 hPa Calm     96% 0.0 mm 0 W/m2
20:46 8.3 °C 7.7 °C 1015.2 hPa Calm     96% 0.0 mm 0 W/m2
20:51 8.2 °C 7.6 °C 1015.2 hPa Calm     96% 0.0 mm 0 W/m2
20:56 8.2 °C 7.6 °C 1015.2 hPa Calm     96% 0.0 mm 0 W/m2
21:01 8.2 °C 7.6 °C 1015.2 hPa Calm     96% 0.0 mm 0 W/m2
21:06 8.2 °C 7.6 °C 1015.2 hPa Calm     96% 0.0 mm 0 W/m2
21:11 8.1 °C 7.5 °C 1015.2 hPa Calm     96% 0.0 mm 0 W/m2
21:16 8.1 °C 7.5 °C 1015.2 hPa Calm     96% 0.0 mm 0 W/m2
21:21 8.1 °C 7.5 °C 1015.2 hPa Calm     96% 0.0 mm 0 W/m2
21:26 8.1 °C 7.5 °C 1015.2 hPa Calm     96% 0.0 mm 0 W/m2
21:31 8.2 °C 7.6 °C 1015.2 hPa Calm     96% 0.0 mm 0 W/m2
21:36 8.2 °C 7.6 °C 1015.2 hPa Calm     96% 0.0 mm 0 W/m2
21:41 8.2 °C 7.6 °C 1015.2 hPa Calm     96% 0.0 mm 0 W/m2
21:46 8.2 °C 7.6 °C 1015.2 hPa Calm     96% 0.0 mm 0 W/m2
21:51 8.2 °C 7.6 °C 1015.2 hPa Calm     96% 0.0 mm 0 W/m2
21:56 8.3 °C 7.7 °C 1015.2 hPa Calm     96% 0.0 mm 0 W/m2
22:01 8.3 °C 7.9 °C 1015.2 hPa Calm     97% 0.0 mm 0 W/m2
22:06 8.4 °C 8 °C 1015.2 hPa Calm     97% 0.0 mm 0 W/m2
22:11 8.4 °C 8 °C 1015.2 hPa Calm     97% 0.0 mm 0 W/m2
22:16 8.4 °C 8 °C 1015.2 hPa Calm     97% 0.0 mm 0 W/m2
22:21 8.5 °C 8.1 °C 1015.2 hPa Calm     97% 0.0 mm 0 W/m2
22:26 8.6 °C 8.2 °C 1015.2 hPa Calm     97% 0.0 mm 0 W/m2
22:31 8.6 °C 8.2 °C 1015.2 hPa Calm     97% 0.0 mm 0 W/m2
22:36 8.5 °C 8.1 °C 1015.2 hPa Calm     97% 0.0 mm 0 W/m2
22:41 8.5 °C 8.1 °C 1015.2 hPa Calm     97% 0.0 mm 0 W/m2
22:46 8.5 °C 8.1 °C 1015.2 hPa Calm     97% 0.0 mm 0 W/m2
22:51 8.4 °C 8 °C 1015.2 hPa Calm     97% 0.0 mm 0 W/m2
22:56 8.4 °C 8 °C 1015.2 hPa Calm     97% 0.0 mm 0 W/m2
23:01 8.4 °C 8 °C 1015.2 hPa Calm     97% 0.0 mm 0 W/m2
23:06 8.4 °C 8 °C 1015.2 hPa Calm     97% 0.0 mm 0 W/m2
23:11 8.4 °C 8 °C 1015.2 hPa Calm     97% 0.0 mm 0 W/m2
23:16 8.4 °C 8 °C 1015.2 hPa Calm     97% 0.0 mm 0 W/m2
23:21 8.4 °C 8 °C 1014.9 hPa Calm     97% 0.0 mm 0 W/m2
23:26 8.5 °C 8.1 °C 1014.9 hPa Calm     97% 0.0 mm 0 W/m2
23:31 8.5 °C 8.1 °C 1014.9 hPa Calm     97% 0.0 mm 0 W/m2
23:36 8.5 °C 8.1 °C 1014.9 hPa Calm     97% 0.0 mm 0 W/m2
23:41 8.5 °C 8.1 °C 1014.9 hPa Calm     97% 0.0 mm 0 W/m2
23:46 8.5 °C 8.1 °C 1014.9 hPa Calm     97% 0.0 mm 0 W/m2
23:51 8.4 °C 8 °C 1014.9 hPa Calm     97% 0.0 mm 0 W/m2
23:56 8.4 °C 8 °C 1014.9 hPa Calm     97% 0.0 mm 0 W/m2
Juneau County Weather
Compliments of Weather Underground - 2 mb